Virtual LH

Virtual LH. There's no better way to fly
Since 2013.



AIRPORT MAP

METAR AND TAF INFORMATION

METAR FOR LDDU
ADDS - METARS form results

(1206 UTC 20 June 2019)
Data provider http://aviationweather.gov/metar/data/
 
METAR text: LDDU 201200Z VRB07KT 9999 FEW027 27/20 Q1014 BECMG 28008KT
Conditions at: LDDU (DUBROVNIK-CILIPI, HR) observed 1200 UTC 20 June 2019
Temperature: 27.0°C (81°F)
Dewpoint: 20.0°C (68°F) [RH = 66%]
Pressure (altimeter): 29.94 inches Hg (1014.0 mb)
Winds: variable direction winds at 8 MPH (7 knots; 3.6 m/s)
Visibility: 6 or more miles (10+ km)
Ceiling: at least 12,000 feet AGL
Clouds: few clouds at 2700 feet AGL
Weather: no significant weather observed at this time

METAR text: LDDU 201130Z 23006KT 150V320 9999 FEW030 26/19 Q1014 BECMG FM1200 28008KT
Conditions at: LDDU (DUBROVNIK-CILIPI, HR) observed 1130 UTC 20 June 2019
Temperature: 26.0°C (79°F)
Dewpoint: 19.0°C (66°F) [RH = 65%]
Pressure (altimeter): 29.94 inches Hg (1014.0 mb)
Winds: from the SW (230 degrees) at 7 MPH (6 knots; 3.1 m/s)
Visibility: 6 or more miles (10+ km)
Ceiling: at least 12,000 feet AGL
Clouds: few clouds at 3000 feet AGL
Weather: no significant weather observed at this time

Forecast for: LDDU (DUBROVNIK-CILIPI, HR)
Text: TAF LDDU 201125Z 2012/2112 28009KT CAVOK TX28/2013Z TN20/2101Z
Forecast period: 1200 to 1700 UTC 20 June 2019
Forecast type: FROM: standard forecast or significant change
Winds: from the W (280 degrees) at 10 MPH (9 knots; 4.6 m/s)
Visibility: 6 or more miles 10+ km)
Ceiling: unknown
Clouds: missing
Weather: no significant weather forecast for this period
Text: BECMG 2017/2019 08005KT
Forecast period: 1700 UTC 20 June 2019 to 0900 UTC 21 June 2019
Forecast type: BECOMING: Conditions expected to become as follows by 1900 UTC 20 June 2019
Winds: from the E (80 degrees) at 6 MPH (5 knots; 2.6 m/s)
Visibility: 6 or more miles 10+ km)
Ceiling: unknown
Clouds: missing
Weather: no significant weather forecast for this period
Text: BECMG 2109/2111 26008KT
Forecast period: 0900 to 1200 UTC 21 June 2019
Forecast type: BECOMING: Conditions expected to become as follows by 1100 UTC 21 June 2019
Winds: from the W (260 degrees) at 9 MPH (8 knots; 4.1 m/s)
Visibility: 6 or more miles 10+ km)
Ceiling: unknown
Clouds: missing
Weather: no significant weather forecast for this period

RUNWAY INFORMATION

Runway 12 Runway length 10827 ft Runway width 148 ft
Runway elevation 519 ft Runway displaced threshold 488 ft Runway heading 118
Runway 30 Runway length 10827 ft Runway width 148 ft
Runway elevation 484 ft Runway displaced threshold 0 ft Runway heading 298

AIRPORT FREQUENCIES

Type APP Name APP Frequency 123.6 MHZ
Type TWR Name TWR Frequency 129.5 MHZ

AIRPORT NEAR NAVIGATION AIDS

Type NDB Name Dubrovnik Frequency 397 KHZ
Type VOR-DME Name Dubrovnik Frequency 115400 KHZ
Type NDB Name Dubrovnik Frequency 414 KHZ
Type NDB Name Kolocep Frequency 318 KHZ